Time;durP1;ratioP1;P1;durP2;ratioP2;P2;SDS_P1;SDS_P2;PMS_P1;PMS_P2;Temp;Humidity;BMP_temperature;BMP_pressure;BME280_temperature;BME280_humidity;BME280_pressure;Samples;Min_cycle;Max_cycle;Signal;HPM_P1;HPM_P2
2022/10/16 00:00:29;;;;;;;;;;;;;;;20.38;100.00;98487.41;5042596;28;20366;-47
2022/10/16 00:02:55;;;;;;;;;;;;;;;20.56;100.00;98494.72;5061234;28;19920;-46
2022/10/16 00:05:20;;;;;;;;;;;;;;;20.68;100.00;98494.56;5060861;28;19920;-47
2022/10/16 00:07:45;;;;;;;;;;;;;;;20.58;100.00;98495.47;5060972;28;19956;-45
2022/10/16 00:10:11;;;;;;;;;;;;;;;20.22;100.00;98492.22;5060271;28;20289;-47
2022/10/16 00:12:36;;;;;;;;;;;;;;;20.03;100.00;98493.66;5060770;28;19952;-45
2022/10/16 00:15:01;;;;;;;;;;;;;;;20.23;100.00;98489.47;5060672;28;19999;-45
2022/10/16 00:17:26;;;;;;;;;;;;;;;20.29;100.00;98488.16;5060981;28;20013;-45
2022/10/16 00:19:51;;;;;;;;;;;;;;;20.31;100.00;98496.69;5060114;28;20377;-45
2022/10/16 00:22:17;;;;;;;;;;;;;;;20.60;100.00;98491.78;5059977;28;20305;-46
2022/10/16 00:24:42;;;;;;;;;;;;;;;20.60;100.00;98497.00;5060638;28;20297;-45
2022/10/16 00:27:07;;;;;;;;;;;;;;;20.51;100.00;98496.91;5060261;28;20300;-46
2022/10/16 00:29:32;;;;;;;;;;;;;;;20.29;100.00;98503.00;5060203;28;20289;-47
2022/10/16 00:31:58;;;;;;;;;;;;;;;20.52;100.00;98496.75;5060111;28;19920;-46
2022/10/16 00:34:23;;;;;;;;;;;;;;;20.65;100.00;98492.22;5060961;28;19917;-46
2022/10/16 00:36:48;;;;;;;;;;;;;;;20.72;100.00;98489.94;5060258;28;20321;-45
2022/10/16 00:39:13;;;;;;;;;;;;;;;20.82;100.00;98490.84;5058068;28;19916;-46
2022/10/16 00:41:38;;;;;;;;;;;;;;;20.62;100.00;98504.72;5058827;28;19918;-46
2022/10/16 00:44:24;;;;;;;;;;;;;;;20.34;100.00;98504.28;5059789;28;19948;-45
2022/10/16 00:46:49;;;;;;;;;;;;;;;20.31;100.00;98498.50;5059494;28;19969;-45
2022/10/16 00:49:15;;;;;;;;;;;;;;;20.14;100.00;98510.28;5041790;28;19924;-45
2022/10/16 00:51:45;;;;;;;;;;;;;;;20.02;100.00;98507.69;5059814;28;19921;-45
2022/10/16 00:54:11;;;;;;;;;;;;;;;20.06;100.00;98514.34;5042273;28;20744;-45
2022/10/16 00:56:37;;;;;;;;;;;;;;;20.42;100.00;98514.97;5059834;28;19927;-46
2022/10/16 00:59:07;;;;;;;;;;;;;;;19.61;100.00;98506.50;5059404;28;19920;-45
2022/10/16 01:01:32;;;;;;;;;;;;;;;19.64;100.00;98511.50;5041335;28;19924;-47
2022/10/16 01:03:57;;;;;;;;;;;;;;;20.37;100.00;98501.44;5059103;28;20603;-45
2022/10/16 01:06:24;;;;;;;;;;;;;;;20.52;100.00;98503.78;5027058;28;19920;-47
2022/10/16 01:09:08;;;;;;;;;;;;;;;20.53;100.00;98500.22;5041553;28;19916;-47
2022/10/16 01:11:35;;;;;;;;;;;;;;;20.09;100.00;98507.19;5059153;28;19966;-45
2022/10/16 01:14:02;;;;;;;;;;;;;;;19.47;100.00;98505.91;5041412;28;19978;-45
2022/10/16 01:16:30;;;;;;;;;;;;;;;19.47;100.00;98511.13;5041809;28;20305;-46
2022/10/16 01:19:16;;;;;;;;;;;;;;;19.12;100.00;98522.44;5059235;28;19970;-46
2022/10/16 01:21:43;;;;;;;;;;;;;;;18.58;100.00;98518.53;5041133;28;20384;-47
2022/10/16 01:24:12;;;;;;;;;;;;;;;19.16;100.00;98527.31;5041825;28;20128;-45
2022/10/16 01:26:56;;;;;;;;;;;;;;;19.77;100.00;98523.63;5041460;28;19924;-45
2022/10/16 01:29:24;;;;;;;;;;;;;;;19.11;100.00;98516.41;5059030;28;19921;-46
2022/10/16 01:31:52;;;;;;;;;;;;;;;18.92;100.00;98516.09;5041018;28;19924;-45
2022/10/16 01:34:19;;;;;;;;;;;;;;;19.33;100.00;98520.00;5041559;28;19916;-45
2022/10/16 01:36:51;;;;;;;;;;;;;;;19.08;100.00;98516.63;5041776;28;19916;-45
2022/10/16 01:39:16;;;;;;;;;;;;;;;18.88;100.00;98519.88;5039691;28;20334;-47
2022/10/16 01:41:43;;;;;;;;;;;;;;;18.97;100.00;98524.41;5041256;28;19916;-46
2022/10/16 01:44:10;;;;;;;;;;;;;;;19.69;100.00;98526.00;5041106;28;20008;-46
2022/10/16 01:46:36;;;;;;;;;;;;;;;19.81;100.00;98527.66;5041548;28;19927;-46
2022/10/16 01:49:01;;;;;;;;;;;;;;;20.03;100.00;98524.22;5058167;28;19916;-46
2022/10/16 01:51:26;;;;;;;;;;;;;;;19.80;100.00;98528.63;5059396;28;19920;-46
2022/10/16 01:53:53;;;;;;;;;;;;;;;19.61;100.00;98540.47;5041241;28;20007;-45
2022/10/16 01:56:18;;;;;;;;;;;;;;;19.83;100.00;98541.44;5041052;28;19921;-46
2022/10/16 01:58:45;;;;;;;;;;;;;;;20.06;100.00;98530.03;5040888;28;19925;-46
2022/10/16 02:01:10;;;;;;;;;;;;;;;20.16;100.00;98518.84;5041627;28;19920;-45
2022/10/16 02:03:36;;;;;;;;;;;;;;;20.04;100.00;98516.22;5058613;28;19927;-45
2022/10/16 02:06:01;;;;;;;;;;;;;;;19.45;100.00;98516.44;5041164;28;19916;-46
2022/10/16 02:08:28;;;;;;;;;;;;;;;19.23;100.00;98510.25;5058300;28;19921;-45
2022/10/16 02:10:54;;;;;;;;;;;;;;;18.90;100.00;98523.22;5059396;28;19912;-45
2022/10/16 02:13:26;;;;;;;;;;;;;;;19.20;100.00;98522.69;5040102;28;19927;-45
2022/10/16 02:15:52;;;;;;;;;;;;;;;19.36;100.00;98519.75;5043701;28;20042;-46
2022/10/16 02:18:17;;;;;;;;;;;;;;;19.08;100.00;98523.63;5062265;28;19920;-45
2022/10/16 02:20:51;;;;;;;;;;;;;;;19.83;100.00;98523.16;5045396;28;19916;-46
2022/10/16 02:23:18;;;;;;;;;;;;;;;19.77;100.00;98523.63;5044040;28;20063;-46
2022/10/16 02:25:43;;;;;;;;;;;;;;;19.97;100.00;98522.06;5044778;28;20019;-45
2022/10/16 02:28:12;;;;;;;;;;;;;;;19.92;100.00;98517.22;5062427;28;20452;-44
2022/10/16 02:30:49;;;;;;;;;;;;;;;20.01;100.00;98519.09;5045026;28;19999;-45
2022/10/16 02:33:14;;;;;;;;;;;;;;;19.97;100.00;98525.50;5044631;28;20824;-46
2022/10/16 02:35:40;;;;;;;;;;;;;;;20.08;100.00;98529.09;5044343;28;19913;-46
2022/10/16 02:38:05;;;;;;;;;;;;;;;19.77;100.00;98531.47;5044312;28;19950;-44
2022/10/16 02:40:30;;;;;;;;;;;;;;;19.80;100.00;98532.06;5042692;28;20113;-46
2022/10/16 02:42:55;;;;;;;;;;;;;;;19.93;100.00;98539.75;5061760;28;19924;-45
2022/10/16 02:45:21;;;;;;;;;;;;;;;19.88;100.00;98536.69;5062454;28;19924;-44
2022/10/16 02:47:46;;;;;;;;;;;;;;;19.96;100.00;98534.31;5044458;28;19920;-45
2022/10/16 02:50:11;;;;;;;;;;;;;;;19.93;100.00;98539.75;5043729;28;20011;-44
2022/10/16 02:52:36;;;;;;;;;;;;;;;19.87;100.00;98529.81;5029795;28;20408;-48
2022/10/16 02:55:02;;;;;;;;;;;;;;;19.60;100.00;98528.34;5061924;28;20367;-45
2022/10/16 02:57:27;;;;;;;;;;;;;;;19.64;100.00;98524.53;5044270;28;19982;-45
2022/10/16 02:59:52;;;;;;;;;;;;;;;19.34;100.00;98537.31;5061586;28;19972;-45
2022/10/16 03:02:18;;;;;;;;;;;;;;;19.63;100.00;98532.50;5062057;28;19921;-44
2022/10/16 03:04:43;;;;;;;;;;;;;;;19.67;100.00;98535.72;5061640;28;19998;-45
2022/10/16 03:07:08;;;;;;;;;;;;;;;20.02;100.00;98533.00;5062163;28;20348;-46
2022/10/16 03:09:33;;;;;;;;;;;;;;;19.90;100.00;98534.78;5061456;28;20323;-47
2022/10/16 03:11:59;;;;;;;;;;;;;;;19.91;100.00;98535.63;5061852;28;20549;-45
2022/10/16 03:14:24;;;;;;;;;;;;;;;19.82;100.00;98537.19;5027559;28;19970;-46
2022/10/16 03:16:49;;;;;;;;;;;;;;;20.01;100.00;98536.56;5060792;28;19920;-48
2022/10/16 03:19:15;;;;;;;;;;;;;;;19.74;100.00;98534.31;5060554;28;19966;-44
2022/10/16 03:21:41;;;;;;;;;;;;;;;19.60;100.00;98533.56;5060313;28;20855;-45
2022/10/16 03:24:06;;;;;;;;;;;;;;;19.54;100.00;98535.81;5059861;28;20016;-45
2022/10/16 03:26:31;;;;;;;;;;;;;;;19.69;100.00;98541.69;5060236;28;20599;-46
2022/10/16 03:28:56;;;;;;;;;;;;;;;19.45;100.00;98532.13;5061028;28;19920;-45
2022/10/16 03:31:22;;;;;;;;;;;;;;;19.75;100.00;98546.41;5061360;28;20229;-45
2022/10/16 03:33:47;;;;;;;;;;;;;;;18.88;100.00;98545.97;5061854;28;19927;-45
2022/10/16 03:36:12;;;;;;;;;;;;;;;19.55;100.00;98546.16;5061448;28;19916;-45
2022/10/16 03:38:37;;;;;;;;;;;;;;;19.62;100.00;98541.28;5059023;28;20183;-45
2022/10/16 03:41:03;;;;;;;;;;;;;;;19.69;100.00;98541.69;5061191;28;20015;-46
2022/10/16 03:43:29;;;;;;;;;;;;;;;19.95;100.00;98534.44;5061337;28;19952;-45
2022/10/16 03:45:54;;;;;;;;;;;;;;;19.62;100.00;98526.44;5042902;28;19920;-48
2022/10/16 03:48:19;;;;;;;;;;;;;;;19.53;100.00;98519.31;5041665;28;19967;-45
2022/10/16 03:50:45;;;;;;;;;;;;;;;19.67;100.00;98509.59;5060964;28;19983;-45
2022/10/16 03:53:11;;;;;;;;;;;;;;;19.18;100.00;98512.38;5061456;28;19920;-45
2022/10/16 03:55:36;;;;;;;;;;;;;;;19.16;100.00;98519.50;5060719;28;19920;-46
2022/10/16 03:58:01;;;;;;;;;;;;;;;18.99;100.00;98528.56;5060572;28;20456;-45
2022/10/16 04:00:26;;;;;;;;;;;;;;;19.44;100.00;98517.41;5059983;28;19927;-45
2022/10/16 04:02:52;;;;;;;;;;;;;;;18.79;100.00;98527.44;5060062;28;19916;-47
2022/10/16 04:05:17;;;;;;;;;;;;;;;19.61;100.00;98516.97;5059720;28;19920;-45
2022/10/16 04:07:42;;;;;;;;;;;;;;;19.47;100.00;98517.16;5060499;28;20423;-46
2022/10/16 04:10:08;;;;;;;;;;;;;;;19.10;100.00;98519.94;5059682;28;19983;-45
2022/10/16 04:12:33;;;;;;;;;;;;;;;19.59;100.00;98541.50;5060974;28;20357;-45
2022/10/16 04:14:58;;;;;;;;;;;;;;;20.17;100.00;98531.78;5060284;28;19920;-45
2022/10/16 04:17:23;;;;;;;;;;;;;;;20.02;100.00;98531.19;5060673;28;19924;-47
2022/10/16 04:19:49;;;;;;;;;;;;;;;20.05;100.00;98538.00;5059404;28;19931;-44
2022/10/16 04:22:14;;;;;;;;;;;;;;;19.64;100.00;98542.84;5060902;28;19924;-45
2022/10/16 04:24:39;;;;;;;;;;;;;;;19.53;100.00;98532.38;5060420;28;19999;-44
2022/10/16 04:27:05;;;;;;;;;;;;;;;18.92;100.00;98535.19;5060660;28;20315;-45
2022/10/16 04:29:30;;;;;;;;;;;;;;;19.14;100.00;98538.84;5059420;28;19924;-45
2022/10/16 04:31:55;;;;;;;;;;;;;;;19.70;100.00;98538.13;5060525;28;19920;-45
2022/10/16 04:34:20;;;;;;;;;;;;;;;19.84;100.00;98545.72;5060276;28;20062;-45
2022/10/16 04:36:51;;;;;;;;;;;;;;;19.67;100.00;98539.16;5060674;28;19940;-45
2022/10/16 04:39:16;;;;;;;;;;;;;;;19.47;100.00;98558.13;5057562;28;19925;-46
2022/10/16 04:41:41;;;;;;;;;;;;;;;19.91;100.00;98554.75;5060001;28;19921;-46
2022/10/16 04:44:07;;;;;;;;;;;;;;;19.90;100.00;98553.09;5059674;28;20222;-44
2022/10/16 04:46:32;;;;;;;;;;;;;;;19.92;100.00;98553.78;5060511;28;19970;-45
2022/10/16 04:48:57;;;;;;;;;;;;;;;20.02;100.00;98553.91;5059113;28;19920;-46
2022/10/16 04:51:23;;;;;;;;;;;;;;;19.94;100.00;98561.53;5059897;28;20019;-46
2022/10/16 04:53:48;;;;;;;;;;;;;;;19.80;100.00;98570.44;5059689;28;19917;-45
2022/10/16 04:56:14;;;;;;;;;;;;;;;19.46;100.00;98575.56;5060160;28;20377;-45
2022/10/16 04:58:40;;;;;;;;;;;;;;;19.89;100.00;98574.94;5059101;28;20018;-44
2022/10/16 05:01:05;;;;;;;;;;;;;;;19.81;100.00;98572.09;5059453;28;20026;-45
2022/10/16 05:03:30;;;;;;;;;;;;;;;19.73;100.00;98579.66;5059712;28;19924;-45
2022/10/16 05:05:56;;;;;;;;;;;;;;;19.64;100.00;98586.41;5060027;28;19916;-45
2022/10/16 05:08:21;;;;;;;;;;;;;;;19.73;100.00;98587.50;5059472;28;20392;-45
2022/10/16 05:10:47;;;;;;;;;;;;;;;19.68;100.00;98581.78;5059133;28;19920;-46
2022/10/16 05:13:12;;;;;;;;;;;;;;;19.59;100.00;98578.94;5059839;28;19927;-46
2022/10/16 05:15:37;;;;;;;;;;;;;;;19.42;100.00;98576.75;5059469;28;20312;-46
2022/10/16 05:18:02;;;;;;;;;;;;;;;19.64;100.00;98575.97;5059835;28;19975;-45
2022/10/16 05:20:28;;;;;;;;;;;;;;;19.79;100.00;98568.75;5059148;28;19971;-45
2022/10/16 05:22:53;;;;;;;;;;;;;;;19.48;100.00;98576.31;5059314;28;19927;-45
2022/10/16 05:25:18;;;;;;;;;;;;;;;19.71;100.00;98579.81;5059371;28;19943;-44
2022/10/16 05:27:46;;;;;;;;;;;;;;;19.75;100.00;98589.09;5041698;28;19916;-44
2022/10/16 05:30:12;;;;;;;;;;;;;;;19.53;100.00;98597.66;5059019;28;19920;-45
2022/10/16 05:32:37;;;;;;;;;;;;;;;19.45;100.00;98610.47;5059030;28;19921;-45
2022/10/16 05:35:02;;;;;;;;;;;;;;;19.21;100.00;98608.72;5059668;28;19921;-46
2022/10/16 05:37:27;;;;;;;;;;;;;;;19.32;100.00;98607.94;5059687;28;20284;-45
2022/10/16 05:39:53;;;;;;;;;;;;;;;19.45;100.00;98607.84;5057371;28;19920;-45
2022/10/16 05:42:18;;;;;;;;;;;;;;;19.55;100.00;98597.56;5058969;28;19920;-45
2022/10/16 05:44:43;;;;;;;;;;;;;;;19.41;100.00;98601.22;5058935;28;19926;-45
2022/10/16 05:47:10;;;;;;;;;;;;;;;19.39;100.00;98610.94;5059388;28;19924;-45
2022/10/16 05:49:35;;;;;;;;;;;;;;;19.13;100.00;98624.13;5057919;28;19955;-44
2022/10/16 05:52:01;;;;;;;;;;;;;;;19.05;100.00;98634.31;5062313;28;20377;-45
2022/10/16 05:54:27;;;;;;;;;;;;;;;19.08;100.00;98634.06;5045069;28;20146;-44
2022/10/16 05:56:52;;;;;;;;;;;;;;;18.86;100.00;98628.72;5062953;28;19967;-45
2022/10/16 05:59:17;;;;;;;;;;;;;;;19.12;100.00;98642.53;5062417;28;20301;-45
2022/10/16 06:01:43;;;;;;;;;;;;;;;19.23;100.00;98635.56;5063332;28;19931;-45
2022/10/16 06:04:08;;;;;;;;;;;;;;;19.37;100.00;98652.81;5062856;28;19928;-47
2022/10/16 06:06:36;;;;;;;;;;;;;;;19.21;100.00;98642.66;5045086;28;19912;-45
2022/10/16 06:09:01;;;;;;;;;;;;;;;19.01;100.00;98651.13;5062453;28;19924;-44
2022/10/16 06:11:28;;;;;;;;;;;;;;;19.32;100.00;98644.50;5063338;28;19923;-45
2022/10/16 06:13:54;;;;;;;;;;;;;;;19.11;100.00;98644.31;5062175;28;20529;-47
2022/10/16 06:16:19;;;;;;;;;;;;;;;19.05;100.00;98655.19;5063215;28;19923;-45
2022/10/16 06:18:45;;;;;;;;;;;;;;;19.38;100.00;98664.09;5062196;28;19924;-45
2022/10/16 06:21:11;;;;;;;;;;;;;;;19.54;100.00;98667.22;5059568;28;19929;-45
2022/10/16 06:23:37;;;;;;;;;;;;;;;19.04;100.00;98666.53;5044135;28;19920;-45
2022/10/16 06:26:09;;;;;;;;;;;;;;;19.03;100.00;98670.13;5061339;28;19955;-45
2022/10/16 06:28:34;;;;;;;;;;;;;;;19.35;100.00;98677.38;5061720;28;20409;-45
2022/10/16 06:31:00;;;;;;;;;;;;;;;19.18;100.00;98683.81;5063111;28;20033;-45
2022/10/16 06:33:25;;;;;;;;;;;;;;;19.47;100.00;98673.88;5061929;28;19924;-44
2022/10/16 06:35:50;;;;;;;;;;;;;;;19.31;100.00;98675.94;5061782;28;20019;-44
2022/10/16 06:38:16;;;;;;;;;;;;;;;18.88;100.00;98676.44;5061576;28;19967;-45
2022/10/16 06:40:41;;;;;;;;;;;;;;;19.34;100.00;98700.06;5060860;28;19923;-45
2022/10/16 06:43:06;;;;;;;;;;;;;;;19.25;100.00;98694.66;5062925;28;20404;-45
2022/10/16 06:45:31;;;;;;;;;;;;;;;19.67;100.00;98697.69;5060095;28;20469;-45
2022/10/16 06:47:56;;;;;;;;;;;;;;;19.55;100.00;98696.81;5059541;28;19985;-45
2022/10/16 06:50:22;;;;;;;;;;;;;;;19.76;100.00;98712.72;5061976;28;19931;-47
2022/10/16 06:52:47;;;;;;;;;;;;;;;19.41;100.00;98706.50;5061175;28;19920;-44
2022/10/16 06:55:12;;;;;;;;;;;;;;;19.84;100.00;98703.34;5062071;28;19935;-45
2022/10/16 06:57:38;;;;;;;;;;;;;;;19.63;100.00;98708.34;5062280;28;20814;-45
2022/10/16 07:00:03;;;;;;;;;;;;;;;19.90;100.00;98711.69;5061605;28;19916;-45
2022/10/16 07:02:28;;;;;;;;;;;;;;;20.22;100.00;98715.28;5043028;28;20311;-45
2022/10/16 07:04:54;;;;;;;;;;;;;;;20.27;100.00;98718.41;5062461;28;19924;-47
2022/10/16 07:07:19;;;;;;;;;;;;;;;20.25;100.00;98733.38;5061639;28;20296;-45
2022/10/16 07:09:44;;;;;;;;;;;;;;;20.15;100.00;98728.94;5061776;28;19927;-45
2022/10/16 07:12:09;;;;;;;;;;;;;;;20.30;100.00;98721.72;5061825;28;19924;-45
2022/10/16 07:14:35;;;;;;;;;;;;;;;20.00;100.00;98723.09;5062329;28;19920;-46
2022/10/16 07:17:00;;;;;;;;;;;;;;;20.44;100.00;98727.56;5061739;28;19921;-46
2022/10/16 07:19:25;;;;;;;;;;;;;;;20.51;100.00;98733.16;5061004;28;20373;-45
2022/10/16 07:21:50;;;;;;;;;;;;;;;20.85;100.00;98747.09;5061071;28;19924;-44
2022/10/16 07:24:16;;;;;;;;;;;;;;;20.42;100.00;98753.00;5060736;28;19921;-44
2022/10/16 07:26:44;;;;;;;;;;;;;;;20.66;100.00;98762.53;5060991;28;19923;-45
2022/10/16 07:29:13;;;;;;;;;;;;;;;20.41;100.00;98766.19;5061191;28;19969;-45
2022/10/16 07:31:38;;;;;;;;;;;;;;;20.46;100.00;98761.47;5061157;28;19917;-45
2022/10/16 07:34:04;;;;;;;;;;;;;;;21.03;100.00;98763.13;5060517;28;20392;-47
2022/10/16 07:36:29;;;;;;;;;;;;;;;21.49;100.00;98763.91;5042849;28;19916;-46
2022/10/16 07:38:54;;;;;;;;;;;;;;;21.42;100.00;98760.94;5059160;28;20388;-45
2022/10/16 07:41:19;;;;;;;;;;;;;;;21.08;100.00;98775.88;5060945;28;20612;-44
2022/10/16 07:43:48;;;;;;;;;;;;;;;21.29;100.00;98779.38;5061656;28;19921;-44
2022/10/16 07:46:14;;;;;;;;;;;;;;;21.51;100.00;98778.53;5060950;28;19923;-45
2022/10/16 07:48:39;;;;;;;;;;;;;;;20.83;100.00;98788.25;5058142;28;19924;-45
2022/10/16 07:51:05;;;;;;;;;;;;;;;21.47;100.00;98784.16;5054271;28;19928;-44
2022/10/16 07:53:30;;;;;;;;;;;;;;;21.36;100.00;98787.59;5060924;28;19920;-46
2022/10/16 07:55:59;;;;;;;;;;;;;;;21.38;100.00;98790.09;5061399;28;20155;-45
2022/10/16 07:58:25;;;;;;;;;;;;;;;21.62;100.00;98785.53;5042117;28;19928;-47
2022/10/16 08:00:50;;;;;;;;;;;;;;;21.84;100.00;98789.00;5059407;28;19924;-46
2022/10/16 08:03:15;;;;;;;;;;;;;;;21.87;100.00;98787.00;5061026;28;19962;-46
2022/10/16 08:05:40;;;;;;;;;;;;;;;21.49;100.00;98771.75;5059950;28;19925;-45
2022/10/16 08:08:05;;;;;;;;;;;;;;;20.77;100.00;98796.56;5060740;28;19920;-45
2022/10/16 08:10:31;;;;;;;;;;;;;;;21.69;100.00;98798.94;5059621;28;19924;-44
2022/10/16 08:12:56;;;;;;;;;;;;;;;20.36;100.00;98811.00;5060176;28;20027;-45
2022/10/16 08:15:22;;;;;;;;;;;;;;;21.12;100.00;98805.25;5060499;28;19924;-45
2022/10/16 08:17:57;;;;;;;;;;;;;;;20.60;100.00;98820.59;5061032;28;19912;-45
2022/10/16 08:20:22;;;;;;;;;;;;;;;20.56;100.00;98824.38;5041098;28;20026;-46
2022/10/16 08:22:47;;;;;;;;;;;;;;;20.81;100.00;98839.88;5060604;28;20498;-45
2022/10/16 08:25:13;;;;;;;;;;;;;;;20.47;100.00;98831.94;5059239;28;19920;-46
2022/10/16 08:27:38;;;;;;;;;;;;;;;20.80;100.00;98837.38;5059224;28;19916;-44
2022/10/16 08:30:03;;;;;;;;;;;;;;;20.50;100.00;98843.97;5059145;28;20839;-46
2022/10/16 08:32:29;;;;;;;;;;;;;;;20.89;100.00;98837.53;5060302;28;20397;-45
2022/10/16 08:34:54;;;;;;;;;;;;;;;20.47;100.00;98841.59;5059833;28;19966;-45
2022/10/16 08:37:19;;;;;;;;;;;;;;;20.43;100.00;98856.66;5060246;28;20415;-46
2022/10/16 08:39:44;;;;;;;;;;;;;;;20.33;100.00;98855.69;5057717;28;19924;-45
2022/10/16 08:42:11;;;;;;;;;;;;;;;21.18;100.00;98847.50;5057908;28;19932;-44
2022/10/16 08:44:57;;;;;;;;;;;;;;;21.57;100.00;98844.50;5042545;28;19916;-45
2022/10/16 08:47:23;;;;;;;;;;;;;;;21.62;100.00;98852.81;5057109;28;20023;-45
2022/10/16 08:49:55;;;;;;;;;;;;;;;21.28;100.00;98848.44;5040796;28;19927;-45
2022/10/16 08:52:20;;;;;;;;;;;;;;;21.98;100.00;98849.00;5041772;28;19917;-45
2022/10/16 08:54:46;;;;;;;;;;;;;;;21.57;100.00;98852.34;5042327;28;19920;-44
2022/10/16 08:57:13;;;;;;;;;;;;;;;22.33;100.00;98845.31;5041531;28;19920;-45
2022/10/16 08:59:38;;;;;;;;;;;;;;;22.33;100.00;98858.44;5058811;28;19920;-45
2022/10/16 09:02:08;;;;;;;;;;;;;;;22.36;100.00;98857.34;5039462;28;19986;-45
2022/10/16 09:04:43;;;;;;;;;;;;;;;21.85;100.00;98871.94;5039946;28;20344;-45
2022/10/16 09:07:11;;;;;;;;;;;;;;;22.41;100.00;98869.13;5058536;28;19920;-45
2022/10/16 09:09:55;;;;;;;;;;;;;;;21.79;100.00;98873.28;5040789;28;19921;-45
2022/10/16 09:12:26;;;;;;;;;;;;;;;21.09;100.00;98885.69;5060212;28;20341;-45
2022/10/16 09:14:57;;;;;;;;;;;;;;;21.61;100.00;98883.44;5059446;28;19930;-45
2022/10/16 09:17:28;;;;;;;;;;;;;;;22.60;100.00;98878.06;5058856;28;20610;-44
2022/10/16 09:20:13;;;;;;;;;;;;;;;21.82;100.00;98887.91;5040631;28;20567;-46
2022/10/16 09:22:38;;;;;;;;;;;;;;;21.34;100.00;98890.81;5059375;28;19932;-46
2022/10/16 09:25:10;;;;;;;;;;;;;;;21.83;100.00;98887.81;5040336;28;19920;-45
2022/10/16 09:27:35;;;;;;;;;;;;;;;22.64;100.00;98872.44;5059452;28;19932;-45
2022/10/16 09:30:01;;;;;;;;;;;;;;;21.68;100.00;98882.00;5041069;28;20896;-45
2022/10/16 09:32:26;;;;;;;;;;;;;;;22.77;100.00;98880.13;5059830;28;19943;-45
2022/10/16 09:34:52;;;;;;;;;;;;;;;23.25;100.00;98871.66;5041127;28;20506;-44
2022/10/16 09:37:18;;;;;;;;;;;;;;;22.71;100.00;98886.72;5041553;28;19936;-45
2022/10/16 09:40:02;;;;;;;;;;;;;;;22.97;100.00;98879.28;5036552;28;20032;-45
2022/10/16 09:42:31;;;;;;;;;;;;;;;23.23;100.00;98892.00;5059561;28;19929;-44
2022/10/16 09:44:56;;;;;;;;;;;;;;;23.60;100.00;98888.78;5041598;28;19952;-45
2022/10/16 09:47:23;;;;;;;;;;;;;;;23.45;100.00;98884.88;5040574;28;20413;-44
2022/10/16 09:50:02;;;;;;;;;;;;;;;22.94;100.00;98899.69;5039239;28;20423;-44
2022/10/16 09:52:27;;;;;;;;;;;;;;;23.70;100.00;98896.72;5059101;28;20574;-45
2022/10/16 09:54:52;;;;;;;;;;;;;;;23.72;100.00;98903.50;5041815;28;20091;-47
2022/10/16 09:57:18;;;;;;;;;;;;;;;23.23;100.00;98910.38;5057086;28;19963;-45
2022/10/16 09:59:56;;;;;;;;;;;;;;;23.49;100.00;98908.13;5056409;28;20348;-46
2022/10/16 10:02:31;;;;;;;;;;;;;;;22.40;100.00;98911.22;5040659;28;19927;-45
2022/10/16 10:04:57;;;;;;;;;;;;;;;22.57;100.00;98920.34;5041548;28;19985;-45
2022/10/16 10:07:26;;;;;;;;;;;;;;;22.57;100.00;98915.91;5059346;28;19920;-45
2022/10/16 10:09:51;;;;;;;;;;;;;;;23.12;100.00;98910.47;5058732;28;19971;-45
2022/10/16 10:12:26;;;;;;;;;;;;;;;23.46;100.00;98904.94;5041611;28;19955;-46
2022/10/16 10:14:51;;;;;;;;;;;;;;;24.05;100.00;98898.84;5041095;28;19936;-46
2022/10/16 10:17:18;;;;;;;;;;;;;;;22.10;100.00;98907.50;5059092;28;19920;-46
2022/10/16 10:19:46;;;;;;;;;;;;;;;23.63;100.00;98898.19;5058476;28;19924;-45
2022/10/16 10:22:18;;;;;;;;;;;;;;;24.62;100.00;98888.47;5059366;28;19932;-44
2022/10/16 10:24:45;;;;;;;;;;;;;;;24.29;100.00;98895.81;5041042;28;19928;-46
2022/10/16 10:27:12;;;;;;;;;;;;;;;23.23;100.00;98910.38;5039066;28;20003;-44
2022/10/16 10:29:40;;;;;;;;;;;;;;;23.67;100.00;98900.41;5052008;28;21377;-45
2022/10/16 10:32:37;;;;;;;;;;;;;;;23.78;100.00;98908.22;5054053;28;19920;-46
2022/10/16 10:35:06;;;;;;;;;;;;;;;23.67;100.00;98915.38;4999561;28;19934;-45
2022/10/16 10:37:52;;;;;;;;;;;;;;;23.90;100.00;98900.22;5036243;28;19921;-47
2022/10/16 10:40:17;;;;;;;;;;;;;;;24.38;100.00;98902.88;5047219;28;20446;-45
2022/10/16 10:42:58;;;;;;;;;;;;;;;24.30;100.00;98918.53;5058032;28;19924;-47
2022/10/16 10:45:27;;;;;;;;;;;;;;;22.69;100.00;98914.91;5060880;28;19927;-46
2022/10/16 10:48:19;;;;;;;;;;;;;;;23.71;100.00;98922.03;5060268;28;19920;-46
2022/10/16 10:50:44;;;;;;;;;;;;;;;24.86;100.00;98910.88;5030598;28;19931;-45
2022/10/16 10:53:10;;;;;;;;;;;;;;;24.60;100.00;98912.28;5062166;28;20309;-45
2022/10/16 10:55:40;;;;;;;;;;;;;;;23.33;100.00;98929.66;5061209;28;20390;-46
2022/10/16 10:58:10;;;;;;;;;;;;;;;25.20;100.00;98913.84;5043170;28;20372;-45
2022/10/16 11:00:47;;;;;;;;;;;;;;;24.17;100.00;98918.78;5041427;28;19951;-46
2022/10/16 11:03:16;;;;;;;;;;;;;;;24.83;100.00;98914.63;5044332;28;19927;-46
2022/10/16 11:05:51;;;;;;;;;;;;;;;24.62;100.00;98917.44;5061745;28;19930;-46
2022/10/16 11:08:26;;;;;;;;;;;;;;;25.29;99.55;98910.34;5044281;28;20015;-45
2022/10/16 11:10:58;;;;;;;;;;;;;;;24.97;100.00;98922.06;5043860;28;19921;-46
2022/10/16 11:13:35;;;;;;;;;;;;;;;23.75;100.00;98921.66;5043281;28;20403;-46
2022/10/16 11:16:02;;;;;;;;;;;;;;;24.47;100.00;98919.66;5044126;28;19980;-48
2022/10/16 11:18:33;;;;;;;;;;;;;;;24.57;98.08;98920.50;5061816;28;19942;-45
2022/10/16 11:21:08;;;;;;;;;;;;;;;24.96;99.27;98925.69;5044102;28;20250;-45
2022/10/16 11:23:36;;;;;;;;;;;;;;;25.24;100.00;98934.50;5045047;28;19916;-46
2022/10/16 11:26:02;;;;;;;;;;;;;;;24.46;100.00;98928.50;5044119;28;20018;-46
2022/10/16 11:28:42;;;;;;;;;;;;;;;24.10;99.03;98927.38;5043707;28;19943;-45
2022/10/16 11:31:19;;;;;;;;;;;;;;;24.34;94.37;98922.56;5057376;28;19926;-46
2022/10/16 11:34:05;;;;;;;;;;;;;;;25.32;94.13;98914.50;5060999;28;19935;-46
2022/10/16 11:36:33;;;;;;;;;;;;;;;24.50;93.01;98906.22;5060833;28;20007;-45
2022/10/16 11:39:00;;;;;;;;;;;;;;;26.48;92.36;98916.41;5058996;28;19921;-45
2022/10/16 11:41:44;;;;;;;;;;;;;;;26.41;89.93;98915.38;5061727;28;19920;-46
2022/10/16 11:44:09;;;;;;;;;;;;;;;25.26;94.90;98931.72;5061530;28;19932;-46
2022/10/16 11:46:34;;;;;;;;;;;;;;;25.40;96.01;98927.78;5061827;28;20412;-45
2022/10/16 11:49:11;;;;;;;;;;;;;;;25.93;92.75;98921.00;5041772;28;20521;-46
2022/10/16 11:51:38;;;;;;;;;;;;;;;26.50;90.22;98916.22;5043254;28;19924;-44
2022/10/16 11:54:21;;;;;;;;;;;;;;;25.90;86.60;98910.75;5043488;28;19916;-47
2022/10/16 11:56:46;;;;;;;;;;;;;;;25.84;92.08;98920.03;5061336;28;19970;-45
2022/10/16 11:59:23;;;;;;;;;;;;;;;25.91;88.96;98915.88;5059795;28;20299;-47
2022/10/16 12:02:03;;;;;;;;;;;;;;;27.29;92.28;98927.72;5043282;28;19920;-44
2022/10/16 12:04:39;;;;;;;;;;;;;;;27.59;89.85;98928.16;5042986;28;19920;-45
2022/10/16 12:07:06;;;;;;;;;;;;;;;26.16;89.84;98929.31;5061177;28;20597;-45
2022/10/16 12:09:32;;;;;;;;;;;;;;;27.15;90.16;98928.28;5042168;28;20011;-44
2022/10/16 12:11:57;;;;;;;;;;;;;;;26.90;88.90;98923.66;5043335;28;20023;-47
2022/10/16 12:14:22;;;;;;;;;;;;;;;25.92;87.16;98927.25;5043358;28;20633;-47
2022/10/16 12:16:55;;;;;;;;;;;;;;;26.81;87.35;98921.94;5061181;28;19920;-49
2022/10/16 12:19:20;;;;;;;;;;;;;;;26.43;82.48;98925.75;5041382;28;19931;-45
2022/10/16 12:21:46;;;;;;;;;;;;;;;26.57;87.96;98930.53;5060993;28;19920;-49
2022/10/16 12:24:20;;;;;;;;;;;;;;;26.80;88.56;98943.22;5042893;28;19999;-46
2022/10/16 12:26:45;;;;;;;;;;;;;;;26.41;82.50;98927.72;5042937;28;19954;-46
2022/10/16 12:29:29;;;;;;;;;;;;;;;26.87;83.81;98928.44;5040995;28;20003;-47
2022/10/16 12:31:55;;;;;;;;;;;;;;;27.59;83.52;98936.09;5060496;28;20427;-47
2022/10/16 12:34:22;;;;;;;;;;;;;;;27.47;82.53;98931.09;5060463;28;19921;-47
2022/10/16 12:36:47;;;;;;;;;;;;;;;25.63;85.33;98939.59;5042160;28;20746;-46
2022/10/16 12:39:20;;;;;;;;;;;;;;;26.37;81.79;98929.03;5058130;28;19917;-48